Time;durP1;ratioP1;P1;durP2;ratioP2;P2;SDS_P1;SDS_P2;PMS_P1;PMS_P2;Temp;Humidity;BMP_temperature;BMP_pressure;BME280_temperature;BME280_humidity;BME280_pressure;Samples;Min_cycle;Max_cycle;Signal;HPM_P1;HPM_P2
2022/09/29 00:01:29;;;;;;;1.92;1.50;;;10.40;99.90;;;;;;5206055;28;20036;-76
2022/09/29 00:04:21;;;;;;;2.40;1.50;;;10.40;99.90;;;;;;5208754;28;20121;-74
2022/09/29 00:07:12;;;;;;;1.63;1.52;;;10.40;99.90;;;;;;5221331;28;20033;-76
2022/09/29 00:10:04;;;;;;;3.60;2.05;;;10.40;99.90;;;;;;5205405;28;20025;-73
2022/09/29 00:12:55;;;;;;;1.65;1.55;;;10.40;99.90;;;;;;5218455;28;20059;-74
2022/09/29 00:16:01;;;;;;;2.55;2.03;;;10.40;99.90;;;;;;5218650;28;20029;-74
2022/09/29 00:18:56;;;;;;;3.63;2.10;;;10.30;99.90;;;;;;5212602;28;20029;-75
2022/09/29 00:21:47;;;;;;;4.55;1.80;;;10.30;99.90;;;;;;5212011;28;20475;-74
2022/09/29 00:24:41;;;;;;;2.30;1.70;;;10.30;99.90;;;;;;5193099;28;20476;-74
2022/09/29 00:27:33;;;;;;;6.72;3.10;;;10.30;99.90;;;;;;5219929;28;20024;-74
2022/09/29 00:30:27;;;;;;;2.67;1.92;;;10.20;99.90;;;;;;5206631;28;20037;-75
2022/09/29 00:33:21;;;;;;;2.13;1.83;;;10.20;99.90;;;;;;5230752;28;20443;-75
2022/09/29 00:36:15;;;;;;;2.13;1.92;;;10.20;99.90;;;;;;5202152;28;20255;-75
2022/09/29 00:39:08;;;;;;;1.60;1.48;;;10.20;99.90;;;;;;5214063;28;20029;-74
2022/09/29 00:42:00;;;;;;;1.70;1.60;;;10.20;99.90;;;;;;5201161;28;20025;-75
2022/09/29 00:44:57;;;;;;;2.85;1.88;;;10.20;99.90;;;;;;5197563;28;20357;-77
2022/09/29 00:48:12;;;;;;;2.67;1.75;;;10.20;99.90;;;;;;5203173;28;20112;-77
2022/09/29 00:51:03;;;;;;;4.95;2.28;;;10.10;99.90;;;;;;5217070;28;20043;-76
2022/09/29 00:53:56;;;;;;;3.05;2.08;;;10.10;99.90;;;;;;5204181;28;20037;-77
2022/09/29 00:56:51;;;;;;;3.75;2.30;;;10.00;99.90;;;;;;5218706;28;20036;-74
2022/09/29 01:00:00;;;;;;;4.00;2.75;;;10.10;99.90;;;;;;5203764;28;20029;-74
2022/09/29 01:02:58;;;;;;;3.60;2.80;;;10.00;99.90;;;;;;5209430;28;20040;-74
2022/09/29 01:05:55;;;;;;;2.85;2.55;;;10.00;99.90;;;;;;5209956;28;20091;-73
2022/09/29 01:08:57;;;;;;;3.38;2.00;;;10.00;99.90;;;;;;5187261;28;20475;-74
2022/09/29 01:11:51;;;;;;;4.13;2.45;;;10.00;99.90;;;;;;5208420;28;20503;-73
2022/09/29 01:14:46;;;;;;;3.45;2.42;;;10.00;99.90;;;;;;5205133;28;20029;-74
2022/09/29 01:17:40;;;;;;;3.22;2.50;;;9.90;99.90;;;;;;5203187;28;20039;-73
2022/09/29 01:20:47;;;;;;;3.50;2.38;;;9.90;99.90;;;;;;5217132;28;20052;-73
2022/09/29 01:24:15;;;;;;;3.67;2.70;;;10.00;99.90;;;;;;5217694;28;20033;-74
2022/09/29 01:27:09;;;;;;;2.92;2.40;;;10.00;99.90;;;;;;5217175;28;20021;-73
2022/09/29 01:30:11;;;;;;;2.60;2.40;;;10.00;99.90;;;;;;5202585;28;20032;-73
2022/09/29 01:33:17;;;;;;;2.88;2.25;;;10.00;99.90;;;;;;5212244;28;20215;-75
2022/09/29 01:36:21;;;;;;;2.50;2.17;;;10.00;99.90;;;;;;5209302;28;20352;-73
2022/09/29 01:39:31;;;;;;;2.25;2.05;;;10.00;99.90;;;;;;5219590;28;20029;-74
2022/09/29 01:42:29;;;;;;;2.33;1.90;;;10.00;99.90;;;;;;5216366;28;20501;-73
2022/09/29 01:45:23;;;;;;;2.70;2.10;;;10.00;99.90;;;;;;5216116;28;20039;-75
2022/09/29 01:48:24;;;;;;;2.65;1.70;;;10.10;99.90;;;;;;5201281;28;20100;-73
2022/09/29 01:51:22;;;;;;;2.78;1.92;;;10.10;99.90;;;;;;5203243;28;20053;-74
2022/09/29 01:54:21;;;;;;;2.20;1.70;;;10.10;99.90;;;;;;5217255;28;20029;-74
2022/09/29 01:57:33;;;;;;;1.65;1.55;;;10.10;99.90;;;;;;5215659;28;20370;-74
2022/09/29 02:00:30;;;;;;;1.83;1.40;;;10.10;99.90;;;;;;5216478;28;20027;-72
2022/09/29 02:03:47;;;;;;;1.85;1.73;;;10.00;99.90;;;;;;5211746;28;20040;-72
2022/09/29 02:06:47;;;;;;;1.60;1.50;;;10.00;99.90;;;;;;5226305;28;20044;-74
2022/09/29 02:09:43;;;;;;;2.25;1.70;;;10.00;99.90;;;;;;5237624;28;20035;-74
2022/09/29 02:12:38;;;;;;;3.15;1.80;;;10.00;99.90;;;;;;5236298;28;20044;-74
2022/09/29 02:15:33;;;;;;;1.67;1.52;;;10.00;99.90;;;;;;5230960;28;20499;-73
2022/09/29 02:18:33;;;;;;;;;;;9.90;99.90;;;;;;5213071;28;20055;-74
2022/09/29 02:21:27;;;;;;;1.90;1.50;;;10.00;99.90;;;;;;5197089;28;20280;-74
2022/09/29 02:24:23;;;;;;;2.53;1.73;;;9.90;99.90;;;;;;5197836;28;20026;-74
2022/09/29 02:27:16;;;;;;;2.10;1.90;;;9.90;99.90;;;;;;5195842;28;20025;-73
2022/09/29 02:30:10;;;;;;;2.70;2.25;;;9.90;99.90;;;;;;5207462;28;20024;-74
2022/09/29 02:33:02;;;;;;;3.58;2.30;;;9.90;99.90;;;;;;5223802;28;20037;-73
2022/09/29 02:35:57;;;;;;;3.60;2.50;;;9.90;99.90;;;;;;5214998;28;20047;-73
2022/09/29 02:38:57;;;;;;;;;;;9.90;99.90;;;;;;5217244;28;20495;-71
2022/09/29 02:42:12;;;;;;;3.90;1.80;;;9.90;99.90;;;;;;5202519;28;20294;-71
2022/09/29 02:45:22;;;;;;;2.97;2.58;;;9.90;99.90;;;;;;5215567;28;20017;-73
2022/09/29 02:48:47;;;;;;;5.95;3.13;;;9.90;99.90;;;;;;5209261;28;20020;-73
2022/09/29 02:51:47;;;;;;;3.72;2.70;;;9.90;99.90;;;;;;5215435;28;20293;-73
2022/09/29 02:54:48;;;;;;;3.95;2.90;;;9.80;99.90;;;;;;5217569;28;20526;-73
2022/09/29 02:57:58;;;;;;;4.93;3.13;;;9.90;99.90;;;;;;5196500;28;20042;-72
2022/09/29 03:00:50;;;;;;;3.70;3.13;;;9.90;99.90;;;;;;5218471;28;20481;-74
2022/09/29 03:03:42;;;;;;;3.35;2.88;;;9.80;99.90;;;;;;5220760;28;20419;-74
2022/09/29 03:06:34;;;;;;;4.35;3.80;;;9.90;99.90;;;;;;5194298;28;20059;-73
2022/09/29 03:09:25;;;;;;;4.57;3.45;;;9.80;99.90;;;;;;5201685;28;20036;-73
2022/09/29 03:12:17;;;;;;;5.72;4.18;;;9.90;99.90;;;;;;5186464;28;20036;-74
2022/09/29 03:15:11;;;;;;;4.88;3.85;;;9.90;99.90;;;;;;5210375;28;20193;-73
2022/09/29 03:18:03;;;;;;;6.55;3.40;;;9.90;99.90;;;;;;5213980;28;20020;-73
2022/09/29 03:20:57;;;;;;;5.80;3.67;;;9.80;99.90;;;;;;5188114;28;20382;-74
2022/09/29 03:23:49;;;;;;;3.63;3.30;;;9.90;99.90;;;;;;5216116;28;20374;-73
2022/09/29 03:26:42;;;;;;;4.43;3.00;;;9.80;99.90;;;;;;5202014;28;20025;-74
2022/09/29 03:29:37;;;;;;;3.85;3.05;;;9.80;99.90;;;;;;5201548;28;20566;-74
2022/09/29 03:32:29;;;;;;;4.07;3.00;;;9.80;99.90;;;;;;5218657;28;20032;-74
2022/09/29 03:35:20;;;;;;;6.43;3.30;;;9.80;99.90;;;;;;5215114;28;20036;-74
2022/09/29 03:38:12;;;;;;;4.68;3.28;;;9.80;99.90;;;;;;5215262;28;20060;-73
2022/09/29 03:41:04;;;;;;;3.53;3.05;;;9.80;99.90;;;;;;5215365;28;20545;-74
2022/09/29 03:44:01;;;;;;;3.35;3.05;;;9.80;99.90;;;;;;5212429;28;20033;-74
2022/09/29 03:46:55;;;;;;;4.32;3.03;;;9.80;99.90;;;;;;5195935;28;20261;-73
2022/09/29 03:49:47;;;;;;;4.13;2.47;;;9.80;99.90;;;;;;5194878;28;20448;-73
2022/09/29 03:52:38;;;;;;;3.00;2.28;;;9.80;99.90;;;;;;5198458;28;20043;-74
2022/09/29 03:55:32;;;;;;;3.05;2.30;;;9.80;99.90;;;;;;5214041;28;20017;-74
2022/09/29 03:58:25;;;;;;;2.78;2.33;;;9.80;99.90;;;;;;5201568;28;20025;-74
2022/09/29 04:01:24;;;;;;;3.63;2.28;;;9.80;99.90;;;;;;5205218;28;20044;-74
2022/09/29 04:04:20;;;;;;;2.05;1.70;;;9.80;99.90;;;;;;5214343;28;20101;-75
2022/09/29 04:07:12;;;;;;;2.25;2.05;;;9.80;99.90;;;;;;5237724;28;20039;-74
2022/09/29 04:10:04;;;;;;;2.63;1.73;;;9.80;99.90;;;;;;5204806;28;20035;-74
2022/09/29 04:12:55;;;;;;;1.60;1.50;;;9.80;99.90;;;;;;5188694;28;20033;-74
2022/09/29 04:15:50;;;;;;;1.73;1.63;;;9.80;99.90;;;;;;5197373;28;20027;-72
2022/09/29 04:18:44;;;;;;;1.50;1.40;;;9.80;99.90;;;;;;5196715;28;20426;-72
2022/09/29 04:21:36;;;;;;;1.38;1.27;;;9.80;99.90;;;;;;5195390;28;20323;-72
2022/09/29 04:24:27;;;;;;;1.65;1.55;;;9.70;99.90;;;;;;5213960;28;20372;-73
2022/09/29 04:27:19;;;;;;;1.70;1.40;;;9.60;99.90;;;;;;5215069;28;20035;-72
2022/09/29 04:30:11;;;;;;;2.45;1.83;;;9.70;99.90;;;;;;5211358;28;20034;-75
2022/09/29 04:33:02;;;;;;;1.52;1.10;;;9.70;99.90;;;;;;5219137;28;20037;-72
2022/09/29 04:35:54;;;;;;;1.50;1.40;;;9.70;99.90;;;;;;5209936;28;20029;-74
2022/09/29 04:38:50;;;;;;;1.88;1.45;;;9.70;99.90;;;;;;5215312;28;20017;-73
2022/09/29 04:41:41;;;;;;;1.73;1.63;;;9.70;99.90;;;;;;5214476;28;20047;-74
2022/09/29 04:44:33;;;;;;;1.65;1.52;;;9.60;99.90;;;;;;5198322;28;20219;-74
2022/09/29 04:47:27;;;;;;;2.85;1.58;;;9.50;99.90;;;;;;5214984;28;20024;-74
2022/09/29 04:50:22;;;;;;;2.17;1.98;;;9.40;99.90;;;;;;5218232;28;20025;-73
2022/09/29 04:53:14;;;;;;;2.00;1.80;;;9.40;99.90;;;;;;5202434;28;20051;-73
2022/09/29 04:56:07;;;;;;;3.58;1.55;;;9.30;99.90;;;;;;5197438;28;20021;-74
2022/09/29 04:59:01;;;;;;;1.88;1.38;;;9.30;99.90;;;;;;5203668;28;20039;-73
2022/09/29 05:01:52;;;;;;;1.95;1.80;;;9.30;99.90;;;;;;5228346;28;20032;-74
2022/09/29 05:04:46;;;;;;;2.17;1.90;;;9.20;99.90;;;;;;5208933;28;20048;-73
2022/09/29 05:07:40;;;;;;;1.90;1.70;;;9.30;99.90;;;;;;5197350;28;20021;-74
2022/09/29 05:10:33;;;;;;;3.22;2.35;;;9.30;99.90;;;;;;5207464;28;20234;-74
2022/09/29 05:13:24;;;;;;;2.33;2.13;;;9.40;99.90;;;;;;5218431;28;20036;-73
2022/09/29 05:16:19;;;;;;;2.63;2.13;;;9.40;99.90;;;;;;5190096;28;20035;-73
2022/09/29 05:19:11;;;;;;;2.88;2.42;;;9.50;99.90;;;;;;5197483;28;20044;-73
2022/09/29 05:22:03;;;;;;;2.67;2.47;;;9.60;99.90;;;;;;5215260;28;20036;-73
2022/09/29 05:24:54;;;;;;;2.15;2.05;;;9.70;99.90;;;;;;5190168;28;20029;-73
2022/09/29 05:27:49;;;;;;;2.90;2.15;;;9.80;99.90;;;;;;5199091;28;20021;-74
2022/09/29 05:30:43;;;;;;;3.20;2.38;;;9.90;99.90;;;;;;5200864;28;20416;-74
2022/09/29 05:33:36;;;;;;;2.72;2.33;;;10.00;99.90;;;;;;5221482;28;20025;-72
2022/09/29 05:36:28;;;;;;;2.58;2.20;;;10.10;99.90;;;;;;5216099;28;20035;-74
2022/09/29 05:39:19;;;;;;;3.63;2.67;;;10.10;99.90;;;;;;5214966;28;20033;-74
2022/09/29 05:42:16;;;;;;;6.03;2.42;;;10.20;99.90;;;;;;5180371;28;20036;-75
2022/09/29 05:45:10;;;;;;;3.40;2.70;;;10.20;99.90;;;;;;5189195;28;20029;-75
2022/09/29 05:48:02;;;;;;;3.42;2.90;;;10.30;99.90;;;;;;5215919;28;20021;-75
2022/09/29 05:50:56;;;;;;;2.60;2.40;;;10.30;99.90;;;;;;5217468;28;20246;-74
2022/09/29 05:53:47;;;;;;;3.92;2.78;;;10.30;99.90;;;;;;5204822;28;20347;-73
2022/09/29 05:56:39;;;;;;;5.65;2.80;;;10.30;99.90;;;;;;5208876;28;20040;-73
2022/09/29 05:59:30;;;;;;;4.28;3.05;;;10.30;99.90;;;;;;5218665;28;20464;-73
2022/09/29 06:02:24;;;;;;;3.58;2.42;;;10.20;99.90;;;;;;5214676;28;20086;-72
2022/09/29 06:05:17;;;;;;;3.53;2.90;;;10.10;99.90;;;;;;5196787;28;20064;-72
2022/09/29 06:08:09;;;;;;;3.20;2.90;;;10.00;99.90;;;;;;5208936;28;20013;-74
2022/09/29 06:11:11;;;;;;;2.97;2.35;;;10.00;99.90;;;;;;5213584;28;20037;-74
2022/09/29 06:14:06;;;;;;;2.45;2.22;;;10.00;99.90;;;;;;5206638;28;20041;-73
2022/09/29 06:16:57;;;;;;;2.37;2.17;;;10.00;99.90;;;;;;5200596;28;20338;-74
2022/09/29 06:19:49;;;;;;;2.85;2.50;;;9.90;99.90;;;;;;5211464;28;20437;-73
2022/09/29 06:22:43;;;;;;;3.92;2.97;;;9.90;99.90;;;;;;5213204;28;20040;-73
2022/09/29 06:25:34;;;;;;;3.72;3.00;;;9.90;99.90;;;;;;5219554;28;20025;-73
2022/09/29 06:28:26;;;;;;;2.80;2.35;;;9.90;99.90;;;;;;5208718;28;20046;-73
2022/09/29 06:31:21;;;;;;;2.83;2.53;;;9.90;99.90;;;;;;5218096;28;20363;-75
2022/09/29 06:33:59;;;;;;;3.08;1.90;;;9.80;99.90;;;;;;5225888;28;20025;-74
2022/09/29 06:39:30;;;;;;;3.00;2.75;;;9.90;99.90;;;;;;5215562;28;20033;-74
2022/09/29 06:42:02;;;;;;;3.17;2.88;;;10.00;99.90;;;;;;5240861;28;20036;-74
2022/09/29 06:44:33;;;;;;;3.55;2.40;;;10.00;99.90;;;;;;5207729;28;20041;-74
2022/09/29 06:47:04;;;;;;;3.10;2.80;;;10.00;99.90;;;;;;5218385;28;20018;-74
2022/09/29 06:49:35;;;;;;;3.45;2.55;;;10.10;99.90;;;;;;5222474;28;20028;-75
2022/09/29 06:52:07;;;;;;;2.20;2.00;;;10.20;99.90;;;;;;5203835;28;20040;-73
2022/09/29 06:54:38;;;;;;;2.50;2.30;;;10.20;99.90;;;;;;5217166;28;20013;-73
2022/09/29 06:57:09;;;;;;;2.28;2.00;;;10.20;99.90;;;;;;5227159;28;20029;-73
2022/09/29 06:59:43;;;;;;;2.72;2.35;;;10.30;99.90;;;;;;5225239;28;20040;-73
2022/09/29 07:02:14;;;;;;;2.67;2.42;;;10.50;99.90;;;;;;5220964;28;20594;-75
2022/09/29 07:04:47;;;;;;;2.55;2.30;;;10.70;99.90;;;;;;5188253;28;20053;-76
2022/09/29 07:07:18;;;;;;;3.05;2.15;;;10.80;99.90;;;;;;5214230;28;20055;-75
2022/09/29 07:09:49;;;;;;;2.15;1.95;;;10.90;99.90;;;;;;5225958;28;20025;-75
2022/09/29 07:12:21;;;;;;;3.65;2.33;;;11.10;99.90;;;;;;5236955;28;20039;-75
2022/09/29 07:14:52;;;;;;;2.47;2.25;;;11.40;99.90;;;;;;5245740;28;20028;-74
2022/09/29 07:17:25;;;;;;;3.85;2.40;;;11.70;99.90;;;;;;5189114;28;20024;-73
2022/09/29 07:19:57;;;;;;;3.17;2.20;;;11.90;99.90;;;;;;5215287;28;20025;-73
2022/09/29 07:22:28;;;;;;;2.40;2.20;;;12.10;99.90;;;;;;5197199;28;20266;-75
2022/09/29 07:25:02;;;;;;;2.00;1.80;;;12.30;99.90;;;;;;5219664;28;20024;-75
2022/09/29 07:27:36;;;;;;;2.58;2.13;;;12.50;99.90;;;;;;5215869;28;20047;-75
2022/09/29 07:30:07;;;;;;;4.68;2.50;;;12.80;99.90;;;;;;5217443;28;20033;-75
2022/09/29 07:32:39;;;;;;;2.30;2.15;;;12.90;99.90;;;;;;5219872;28;20375;-74
2022/09/29 07:35:15;;;;;;;6.20;2.75;;;13.00;99.90;;;;;;5215694;28;20053;-74
2022/09/29 07:37:53;;;;;;;2.53;2.13;;;13.20;99.90;;;;;;5195221;28;20045;-74
2022/09/29 07:40:27;;;;;;;4.38;2.20;;;13.40;99.90;;;;;;5213297;28;20041;-74
2022/09/29 07:42:58;;;;;;;1.80;1.60;;;13.30;99.90;;;;;;5191826;28;20037;-74
2022/09/29 07:45:30;;;;;;;2.20;1.60;;;12.90;99.90;;;;;;5204569;28;20839;-74
2022/09/29 07:48:03;;;;;;;2.38;1.90;;;12.70;99.90;;;;;;5174031;28;20037;-74
2022/09/29 07:50:34;;;;;;;2.00;1.67;;;12.20;99.90;;;;;;5196750;28;20036;-75
2022/09/29 07:53:08;;;;;;;1.83;1.65;;;12.30;99.90;;;;;;5197691;28;20043;-74
2022/09/29 07:55:41;;;;;;;1.42;1.33;;;12.40;99.90;;;;;;5191625;28;20527;-75
2022/09/29 07:58:12;;;;;;;1.63;1.20;;;12.50;99.90;;;;;;5214621;28;20032;-74
2022/09/29 08:00:44;;;;;;;1.70;1.60;;;12.70;99.90;;;;;;5213979;28;20028;-73
2022/09/29 08:03:17;;;;;;;1.83;1.73;;;12.70;99.90;;;;;;5215024;28;20223;-73
2022/09/29 08:05:49;;;;;;;1.50;1.40;;;13.00;99.90;;;;;;5203664;28;20079;-73
2022/09/29 08:08:22;;;;;;;1.45;1.35;;;12.90;99.90;;;;;;5196310;28;20055;-73
2022/09/29 08:11:04;;;;;;;1.60;1.50;;;13.10;99.90;;;;;;5177930;28;20045;-73
2022/09/29 08:13:36;;;;;;;1.58;1.48;;;13.20;99.90;;;;;;5189487;28;20044;-73
2022/09/29 08:16:11;;;;;;;1.80;1.40;;;13.30;99.90;;;;;;5211634;28;20216;-73
2022/09/29 08:18:42;;;;;;;1.05;1.05;;;13.60;99.90;;;;;;5205453;28;20043;-73
2022/09/29 08:21:14;;;;;;;1.95;1.80;;;13.90;99.90;;;;;;5193358;28;20375;-73
2022/09/29 08:23:45;;;;;;;1.70;1.60;;;14.20;99.90;;;;;;5212838;28;20051;-73
2022/09/29 08:26:21;;;;;;;1.10;1.10;;;14.40;99.90;;;;;;5210672;28;20024;-73
2022/09/29 08:28:55;;;;;;;1.40;1.17;;;14.70;99.90;;;;;;5201746;28;20047;-73
2022/09/29 08:31:26;;;;;;;3.92;1.98;;;14.80;99.90;;;;;;5217347;28;20050;-74
2022/09/29 08:34:01;;;;;;;3.50;1.30;;;14.90;99.90;;;;;;5211056;28;20041;-73
2022/09/29 08:36:32;;;;;;;1.48;1.38;;;15.00;99.90;;;;;;5200108;28;20025;-73
2022/09/29 08:39:04;;;;;;;1.60;1.50;;;14.90;99.90;;;;;;5208013;28;20037;-73
2022/09/29 08:41:59;;;;;;;1.98;1.65;;;14.80;99.90;;;;;;5168846;28;20029;-73
2022/09/29 08:45:00;;;;;;;1.40;1.30;;;14.70;99.90;;;;;;5205017;28;20035;-73
2022/09/29 08:47:35;;;;;;;3.03;1.30;;;14.20;99.90;;;;;;5210570;28;20039;-73
2022/09/29 08:50:35;;;;;;;1.48;1.30;;;14.00;99.90;;;;;;5214799;28;20197;-73
2022/09/29 08:53:12;;;;;;;1.40;1.30;;;14.20;99.90;;;;;;5211090;28;20048;-74
2022/09/29 08:55:57;;;;;;;1.30;1.20;;;14.00;99.90;;;;;;5217828;28;20040;-73
2022/09/29 08:58:29;;;;;;;1.48;1.38;;;14.00;99.90;;;;;;5214110;28;20033;-74
2022/09/29 09:01:37;;;;;;;1.17;1.00;;;14.20;99.90;;;;;;5212698;28;20031;-74
2022/09/29 09:04:29;;;;;;;1.73;1.40;;;14.50;99.90;;;;;;5205863;28;20036;-74
2022/09/29 09:07:24;;;;;;;1.42;1.33;;;15.00;99.90;;;;;;5149010;28;20071;-73
2022/09/29 09:10:09;;;;;;;1.13;1.13;;;15.10;99.90;;;;;;5199596;28;20040;-74
2022/09/29 09:13:27;;;;;;;1.27;1.25;;;15.00;99.90;;;;;;5198784;28;20507;-74
2022/09/29 09:16:08;;;;;;;1.75;1.33;;;15.50;99.90;;;;;;5187511;28;20036;-74
2022/09/29 09:19:05;;;;;;;1.30;1.25;;;15.70;99.90;;;;;;5200591;28;20043;-74
2022/09/29 09:21:41;;;;;;;1.10;1.10;;;16.30;99.90;;;;;;5217222;28;20040;-74
2022/09/29 09:24:35;;;;;;;1.20;1.10;;;16.20;99.90;;;;;;5217800;28;20029;-74
2022/09/29 09:27:17;;;;;;;1.85;1.33;;;15.70;99.90;;;;;;5218232;28;20035;-75
2022/09/29 09:29:56;;;;;;;1.40;1.30;;;15.30;99.90;;;;;;5215168;28;20032;-73
2022/09/29 09:32:33;;;;;;;1.40;1.30;;;15.60;99.90;;;;;;5216867;28;20029;-73
2022/09/29 09:35:16;;;;;;;1.05;0.95;;;16.10;99.90;;;;;;5223191;28;20036;-74
2022/09/29 09:37:48;;;;;;;1.15;1.13;;;16.50;99.90;;;;;;5198757;28;20037;-74
2022/09/29 09:40:25;;;;;;;1.20;1.10;;;16.60;99.90;;;;;;5208847;28;20028;-73
2022/09/29 09:43:04;;;;;;;1.27;1.10;;;16.70;99.90;;;;;;5238202;28;20309;-73
2022/09/29 09:46:11;;;;;;;0.90;0.90;;;16.70;99.90;;;;;;5222778;28;20027;-73
2022/09/29 09:49:10;;;;;;;1.50;1.40;;;16.80;99.90;;;;;;5217039;28;20112;-75
2022/09/29 09:52:08;;;;;;;2.53;1.30;;;16.80;99.90;;;;;;5166298;28;20050;-74
2022/09/29 09:55:03;;;;;;;1.67;1.25;;;16.70;99.90;;;;;;5215097;28;20506;-73
2022/09/29 09:57:52;;;;;;;1.00;1.00;;;16.80;99.90;;;;;;5213306;28;20363;-73
2022/09/29 10:00:33;;;;;;;1.40;1.30;;;17.40;99.90;;;;;;5187565;28;20036;-72
2022/09/29 10:03:08;;;;;;;2.13;1.02;;;17.80;99.90;;;;;;5215142;28;20322;-74
2022/09/29 10:05:52;;;;;;;1.00;0.90;;;17.90;99.90;;;;;;5174694;28;20041;-73
2022/09/29 10:08:31;;;;;;;0.93;0.93;;;18.30;99.90;;;;;;5198108;28;20075;-73
2022/09/29 10:11:22;;;;;;;1.20;0.90;;;18.50;99.90;;;;;;5187858;28;20021;-73
2022/09/29 10:14:08;;;;;;;1.10;1.00;;;18.50;99.90;;;;;;5207592;28;20037;-73
2022/09/29 10:16:49;;;;;;;1.27;1.17;;;18.70;99.90;;;;;;5208583;28;20893;-74
2022/09/29 10:19:57;;;;;;;1.20;1.10;;;18.90;99.90;;;;;;5215357;28;20032;-74
2022/09/29 10:22:31;;;;;;;1.40;1.00;;;19.20;99.90;;;;;;5203071;28;20035;-73
2022/09/29 10:25:15;;;;;;;1.17;1.08;;;19.70;99.90;;;;;;5192519;28;20036;-74
2022/09/29 10:27:50;;;;;;;1.60;1.00;;;19.90;99.90;;;;;;5184316;28;20034;-73
2022/09/29 10:30:30;;;;;;;1.20;1.10;;;20.00;99.90;;;;;;5209607;28;20020;-74
2022/09/29 10:33:10;;;;;;;1.30;1.20;;;20.40;99.90;;;;;;5198408;28;20032;-74
2022/09/29 10:35:43;;;;;;;1.10;1.00;;;21.50;99.90;;;;;;5197466;28;20478;-74
2022/09/29 10:38:23;;;;;;;0.90;0.90;;;22.30;99.90;;;;;;5212825;28;20029;-74
2022/09/29 10:40:58;;;;;;;1.42;0.90;;;23.40;99.90;;;;;;5213793;28;20029;-74
2022/09/29 10:43:41;;;;;;;1.23;0.98;;;24.80;99.90;;;;;;5218891;28;20025;-74
2022/09/29 10:46:47;;;;;;;1.90;1.10;;;26.10;99.90;;;;;;5216920;28;20043;-74
2022/09/29 10:49:28;;;;;;;2.53;1.20;;;27.00;99.90;;;;;;5216127;28;20049;-73
2022/09/29 10:51:59;;;;;;;0.90;0.82;;;25.50;99.90;;;;;;5217764;28;20031;-74
2022/09/29 10:54:35;;;;;;;1.15;0.90;;;26.00;99.90;;;;;;5214700;28;20355;-73
2022/09/29 10:57:14;;;;;;;1.45;0.95;;;25.80;99.90;;;;;;5168841;28;20043;-75
2022/09/29 10:59:51;;;;;;;0.88;0.88;;;26.90;99.90;;;;;;5197047;28;20028;-74
2022/09/29 11:02:26;;;;;;;2.15;0.95;;;28.50;99.90;;;;;;5209608;28;20040;-74
2022/09/29 11:05:02;;;;;;;3.17;0.90;;;29.80;99.90;;;;;;5187217;28;20129;-73
2022/09/29 11:07:34;;;;;;;1.23;0.90;;;30.90;99.90;;;;;;5214178;28;20028;-73
2022/09/29 11:10:25;;;;;;;1.02;0.80;;;30.30;99.90;;;;;;5215191;28;20017;-73
2022/09/29 11:12:58;;;;;;;0.80;0.80;;;30.20;99.90;;;;;;5199140;28;20032;-73
2022/09/29 11:15:39;;;;;;;0.77;0.70;;;29.40;99.90;;;;;;5197407;28;20025;-75
2022/09/29 11:18:38;;;;;;;1.65;1.05;;;27.10;99.90;;;;;;5213986;28;20039;-73
2022/09/29 11:21:18;;;;;;;1.30;1.00;;;25.20;99.90;;;;;;5190914;28;20048;-73
2022/09/29 11:24:28;;;;;;;1.30;0.80;;;23.80;99.90;;;;;;5213138;28;20029;-74
2022/09/29 11:27:31;;;;;;;1.25;1.00;;;22.80;99.90;;;;;;5115320;28;20027;-73
2022/09/29 11:30:05;;;;;;;1.23;1.10;;;21.50;99.90;;;;;;5099900;28;20034;-74
2022/09/29 11:33:04;;;;;;;1.33;0.95;;;20.70;99.90;;;;;;5129236;28;20034;-74
2022/09/29 11:36:00;;;;;;;1.90;1.10;;;19.90;99.90;;;;;;5169950;28;20016;-74
2022/09/29 11:38:41;;;;;;;1.90;1.30;;;19.90;99.90;;;;;;5213986;28;20017;-75
2022/09/29 11:41:24;;;;;;;1.23;1.13;;;20.00;99.90;;;;;;5215294;28;20025;-73
2022/09/29 11:44:06;;;;;;;1.20;1.10;;;21.00;99.90;;;;;;5212839;28;20246;-73
2022/09/29 11:47:00;;;;;;;1.25;1.13;;;22.20;99.90;;;;;;5195361;28;20031;-73
2022/09/29 11:49:43;;;;;;;1.33;1.20;;;22.40;99.90;;;;;;5196779;28;20017;-74
2022/09/29 11:52:23;;;;;;;0.85;0.85;;;22.10;99.90;;;;;;5212617;28;20028;-74
2022/09/29 11:55:16;;;;;;;0.80;0.80;;;21.40;99.90;;;;;;5213248;28;20021;-73
2022/09/29 11:58:18;;;;;;;0.90;0.90;;;21.70;99.90;;;;;;5213788;28;20029;-74
2022/09/29 12:01:23;;;;;;;1.10;1.10;;;21.80;99.90;;;;;;5198535;28;20041;-73
2022/09/29 12:04:02;;;;;;;2.65;1.42;;;21.90;99.90;;;;;;5199531;28;20033;-73
2022/09/29 12:06:51;;;;;;;1.88;1.20;;;22.50;99.90;;;;;;5206976;28;20036;-73
2022/09/29 12:09:57;;;;;;;1.10;1.00;;;22.60;99.90;;;;;;5198622;28;20040;-74
2022/09/29 12:12:44;;;;;;;1.30;0.98;;;22.70;99.90;;;;;;5197937;28;20041;-75
2022/09/29 12:15:36;;;;;;;0.95;0.85;;;22.30;99.90;;;;;;5217777;28;20034;-75
2022/09/29 12:18:23;;;;;;;1.48;0.88;;;22.10;99.90;;;;;;5217624;28;20037;-73
2022/09/29 12:20:55;;;;;;;1.15;1.00;;;22.50;99.90;;;;;;5217672;28;20032;-73
2022/09/29 12:23:36;;;;;;;0.70;0.70;;;24.10;99.90;;;;;;5221404;28;20019;-73
2022/09/29 12:26:20;;;;;;;0.80;0.80;;;25.40;99.90;;;;;;5200072;28;20035;-74
2022/09/29 12:29:18;;;;;;;0.95;0.73;;;26.10;99.90;;;;;;5221066;28;20017;-73
2022/09/29 12:31:52;;;;;;;1.73;1.02;;;27.00;99.90;;;;;;5221378;28;20013;-73
2022/09/29 12:35:05;;;;;;;0.87;0.70;;;25.60;99.90;;;;;;5220493;28;20035;-73
2022/09/29 12:37:46;;;;;;;1.42;1.00;;;26.00;99.90;;;;;;5181994;28;20037;-73
2022/09/29 12:40:40;;;;;;;1.38;0.75;;;25.70;99.90;;;;;;5203716;28;20040;-73
2022/09/29 12:43:40;;;;;;;2.80;0.70;;;26.80;99.90;;;;;;5219722;28;20036;-74
2022/09/29 12:46:34;;;;;;;1.40;1.10;;;27.40;99.90;;;;;;5217412;28;20044;-75
2022/09/29 12:49:15;;;;;;;0.90;0.80;;;24.90;99.90;;;;;;5200417;28;20044;-74
2022/09/29 12:51:49;;;;;;;1.85;0.88;;;23.80;99.90;;;;;;5219852;28;20025;-75
2022/09/29 12:54:30;;;;;;;0.80;0.80;;;24.60;99.90;;;;;;5220219;28;20474;-76
2022/09/29 12:57:18;;;;;;;0.70;0.70;;;25.80;99.90;;;;;;5200789;28;20039;-75
2022/09/29 12:59:58;;;;;;;1.20;0.80;;;25.30;99.90;;;;;;5220133;28;20025;-75
2022/09/29 13:02:42;;;;;;;1.40;1.00;;;25.70;99.90;;;;;;5202556;28;20037;-75
2022/09/29 13:05:35;;;;;;;0.70;0.70;;;25.70;99.90;;;;;;5209505;28;20045;-73
2022/09/29 13:08:39;;;;;;;0.75;0.70;;;25.50;99.90;;;;;;5217788;28;20027;-73
2022/09/29 13:11:51;;;;;;;1.40;0.90;;;24.90;99.90;;;;;;5162725;28;20025;-74
2022/09/29 13:14:40;;;;;;;1.58;0.90;;;24.60;99.90;;;;;;5114900;29;20039;-73
2022/09/29 13:17:27;;;;;;;1.15;0.80;;;24.30;99.90;;;;;;5199802;28;20387;-73
2022/09/29 13:20:17;;;;;;;0.80;0.80;;;23.80;99.90;;;;;;5216017;28;20024;-74
2022/09/29 13:23:27;;;;;;;1.13;1.00;;;22.80;99.90;;;;;;5199508;28;20029;-73
2022/09/29 13:26:35;;;;;;;0.80;0.80;;;22.10;99.90;;;;;;5214797;28;20029;-73
2022/09/29 13:29:18;;;;;;;1.50;1.15;;;23.20;99.90;;;;;;5200296;28;20037;-73
2022/09/29 13:31:55;;;;;;;1.23;1.00;;;23.40;99.90;;;;;;5201163;28;20025;-74
2022/09/29 13:34:35;;;;;;;1.13;0.88;;;24.10;99.90;;;;;;5214704;28;20045;-73
2022/09/29 13:37:26;;;;;;;2.25;1.02;;;24.30;99.90;;;;;;5191275;28;20339;-73
2022/09/29 13:40:03;;;;;;;1.00;0.90;;;24.30;99.90;;;;;;5215422;28;20016;-73
2022/09/29 13:42:43;;;;;;;1.20;1.10;;;24.20;99.90;;;;;;5211496;28;20044;-73
2022/09/29 13:45:21;;;;;;;1.00;0.90;;;23.80;99.90;;;;;;5204336;28;20029;-73
2022/09/29 13:47:58;;;;;;;0.80;0.80;;;24.50;99.90;;;;;;5219271;28;20036;-72
2022/09/29 13:50:42;;;;;;;1.73;1.08;;;24.20;99.90;;;;;;5222277;28;20013;-73
2022/09/29 13:53:34;;;;;;;1.33;1.00;;;22.50;99.90;;;;;;5220394;28;20035;-73
2022/09/29 13:56:13;;;;;;;1.20;1.10;;;22.00;99.90;;;;;;5220288;28;20557;-73
2022/09/29 13:58:50;;;;;;;1.27;0.90;;;21.60;99.90;;;;;;5210638;28;20033;-73
2022/09/29 14:01:38;;;;;;;1.58;0.88;;;22.00;99.90;;;;;;5200964;28;20326;-73
2022/09/29 14:04:44;;;;;;;1.02;1.00;;;22.60;99.90;;;;;;5237606;28;20031;-73
2022/09/29 14:07:42;;;;;;;1.40;1.10;;;22.90;99.90;;;;;;5236297;28;20493;-73
2022/09/29 14:10:34;;;;;;;1.23;1.13;;;22.60;99.90;;;;;;5221699;28;20020;-74
2022/09/29 14:13:26;;;;;;;1.35;1.02;;;22.30;99.90;;;;;;5222749;28;20028;-74
2022/09/29 14:16:01;;;;;;;1.83;1.10;;;20.40;99.90;;;;;;5222460;28;20379;-74
2022/09/29 14:18:37;;;;;;;1.30;1.20;;;19.90;99.90;;;;;;5224055;28;20033;-75
2022/09/29 14:21:35;;;;;;;1.45;1.25;;;19.30;99.90;;;;;;5224000;28;20021;-74
2022/09/29 14:24:39;;;;;;;1.17;1.08;;;19.20;99.90;;;;;;5223007;28;20035;-74
2022/09/29 14:27:27;;;;;;;1.67;1.20;;;19.80;99.90;;;;;;5212487;28;20017;-74
2022/09/29 14:30:16;;;;;;;1.35;1.10;;;20.90;99.90;;;;;;5221595;28;20032;-74
2022/09/29 14:32:51;;;;;;;3.83;1.10;;;21.20;99.90;;;;;;5225442;28;20032;-73
2022/09/29 14:35:28;;;;;;;1.17;1.10;;;20.60;99.90;;;;;;5221415;28;20032;-73
2022/09/29 14:38:04;;;;;;;2.03;1.30;;;20.20;99.90;;;;;;5198344;28;20028;-73
2022/09/29 14:40:35;;;;;;;1.20;1.10;;;20.00;99.90;;;;;;5218560;28;20449;-73
2022/09/29 14:43:16;;;;;;;2.88;1.30;;;19.90;99.90;;;;;;5225209;28;20029;-73